sensor_id;sensor_type;location;lat;lon;timestamp;P1;durP1;ratioP1;P2;durP2;ratioP2
54665;SDS011;40566;50.006;36.180;2023-03-31T00:01:46;5.78;;;1.33;;
54665;SDS011;40566;50.006;36.180;2023-03-31T00:06:46;4.13;;;1.48;;
54665;SDS011;40566;50.006;36.180;2023-03-31T00:11:47;3.90;;;1.45;;
54665;SDS011;40566;50.006;36.180;2023-03-31T00:16:48;2.75;;;1.17;;
54665;SDS011;40566;50.006;36.180;2023-03-31T00:21:49;4.28;;;1.48;;
54665;SDS011;40566;50.006;36.180;2023-03-31T00:26:50;4.80;;;2.05;;
54665;SDS011;40566;50.006;36.180;2023-03-31T00:31:51;3.72;;;1.52;;
54665;SDS011;40566;50.006;36.180;2023-03-31T00:36:52;3.45;;;1.25;;
54665;SDS011;40566;50.006;36.180;2023-03-31T00:41:55;4.45;;;1.60;;
54665;SDS011;40566;50.006;36.180;2023-03-31T00:47:05;3.38;;;1.58;;
54665;SDS011;40566;50.006;36.180;2023-03-31T00:52:15;2.88;;;1.40;;
54665;SDS011;40566;50.006;36.180;2023-03-31T00:57:18;2.70;;;1.42;;
54665;SDS011;40566;50.006;36.180;2023-03-31T01:02:20;3.80;;;1.27;;
54665;SDS011;40566;50.006;36.180;2023-03-31T01:07:30;2.70;;;1.33;;
54665;SDS011;40566;50.006;36.180;2023-03-31T01:12:40;5.40;;;2.03;;
54665;SDS011;40566;50.006;36.180;2023-03-31T01:17:43;3.65;;;1.20;;
54665;SDS011;40566;50.006;36.180;2023-03-31T01:22:47;2.97;;;1.35;;
54665;SDS011;40566;50.006;36.180;2023-03-31T01:28:09;2.70;;;1.10;;
54665;SDS011;40566;50.006;36.180;2023-03-31T01:49:27;1.25;;;0.68;;
54665;SDS011;40566;50.006;36.180;2023-03-31T02:00:09;3.50;;;1.35;;
54665;SDS011;40566;50.006;36.180;2023-03-31T02:05:13;2.47;;;1.20;;
54665;SDS011;40566;50.006;36.180;2023-03-31T02:10:18;2.40;;;1.15;;
54665;SDS011;40566;50.006;36.180;2023-03-31T02:15:23;3.72;;;1.30;;
54665;SDS011;40566;50.006;36.180;2023-03-31T02:20:26;2.58;;;1.05;;
54665;SDS011;40566;50.006;36.180;2023-03-31T02:25:31;1.77;;;1.00;;
54665;SDS011;40566;50.006;36.180;2023-03-31T02:36:07;1.33;;;0.70;;
54665;SDS011;40566;50.006;36.180;2023-03-31T02:41:09;2.65;;;1.38;;
54665;SDS011;40566;50.006;36.180;2023-03-31T02:46:10;4.75;;;1.48;;
54665;SDS011;40566;50.006;36.180;2023-03-31T02:51:22;3.38;;;1.63;;
54665;SDS011;40566;50.006;36.180;2023-03-31T03:02:24;2.60;;;1.45;;
54665;SDS011;40566;50.006;36.180;2023-03-31T03:12:44;2.42;;;1.15;;
54665;SDS011;40566;50.006;36.180;2023-03-31T03:17:53;1.70;;;1.10;;
54665;SDS011;40566;50.006;36.180;2023-03-31T03:22:55;1.38;;;0.93;;
54665;SDS011;40566;50.006;36.180;2023-03-31T03:27:55;1.80;;;0.77;;
54665;SDS011;40566;50.006;36.180;2023-03-31T03:32:56;1.13;;;0.70;;
54665;SDS011;40566;50.006;36.180;2023-03-31T03:37:58;3.00;;;1.23;;
54665;SDS011;40566;50.006;36.180;2023-03-31T03:42:59;3.70;;;1.13;;
54665;SDS011;40566;50.006;36.180;2023-03-31T03:47:59;1.75;;;0.88;;
54665;SDS011;40566;50.006;36.180;2023-03-31T03:53:00;4.65;;;1.42;;
54665;SDS011;40566;50.006;36.180;2023-03-31T03:58:00;1.48;;;1.20;;
54665;SDS011;40566;50.006;36.180;2023-03-31T04:03:01;1.00;;;0.85;;
54665;SDS011;40566;50.006;36.180;2023-03-31T04:08:02;1.70;;;0.93;;
54665;SDS011;40566;50.006;36.180;2023-03-31T04:13:03;2.10;;;1.20;;
54665;SDS011;40566;50.006;36.180;2023-03-31T04:18:04;3.10;;;1.25;;
54665;SDS011;40566;50.006;36.180;2023-03-31T04:23:04;1.10;;;0.70;;
54665;SDS011;40566;50.006;36.180;2023-03-31T04:28:08;2.05;;;1.05;;
54665;SDS011;40566;50.006;36.180;2023-03-31T04:33:09;2.72;;;0.85;;
54665;SDS011;40566;50.006;36.180;2023-03-31T04:38:10;1.92;;;1.13;;
54665;SDS011;40566;50.006;36.180;2023-03-31T04:43:10;4.20;;;1.40;;
54665;SDS011;40566;50.006;36.180;2023-03-31T04:48:11;1.92;;;0.90;;
54665;SDS011;40566;50.006;36.180;2023-03-31T04:53:12;8.95;;;2.00;;
54665;SDS011;40566;50.006;36.180;2023-03-31T04:58:12;2.63;;;1.08;;
54665;SDS011;40566;50.006;36.180;2023-03-31T05:03:13;2.47;;;0.98;;
54665;SDS011;40566;50.006;36.180;2023-03-31T05:08:14;0.60;;;0.50;;
54665;SDS011;40566;50.006;36.180;2023-03-31T05:13:14;1.75;;;0.98;;
54665;SDS011;40566;50.006;36.180;2023-03-31T05:18:15;8.73;;;2.20;;
54665;SDS011;40566;50.006;36.180;2023-03-31T05:23:16;2.25;;;0.90;;
54665;SDS011;40566;50.006;36.180;2023-03-31T05:28:17;2.28;;;1.10;;
54665;SDS011;40566;50.006;36.180;2023-03-31T05:33:17;3.10;;;1.52;;
54665;SDS011;40566;50.006;36.180;2023-03-31T05:38:18;2.50;;;1.05;;
54665;SDS011;40566;50.006;36.180;2023-03-31T05:43:18;2.72;;;1.15;;
54665;SDS011;40566;50.006;36.180;2023-03-31T05:48:19;2.05;;;1.10;;
54665;SDS011;40566;50.006;36.180;2023-03-31T05:53:20;1.85;;;1.25;;
54665;SDS011;40566;50.006;36.180;2023-03-31T05:58:21;3.35;;;1.38;;
54665;SDS011;40566;50.006;36.180;2023-03-31T06:03:21;5.20;;;1.27;;
54665;SDS011;40566;50.006;36.180;2023-03-31T06:08:22;1.73;;;0.90;;
54665;SDS011;40566;50.006;36.180;2023-03-31T06:13:23;4.47;;;1.02;;
54665;SDS011;40566;50.006;36.180;2023-03-31T06:18:24;2.42;;;0.73;;
54665;SDS011;40566;50.006;36.180;2023-03-31T06:23:27;2.80;;;1.10;;
54665;SDS011;40566;50.006;36.180;2023-03-31T06:28:28;3.95;;;1.25;;
54665;SDS011;40566;50.006;36.180;2023-03-31T06:33:30;3.72;;;1.00;;
54665;SDS011;40566;50.006;36.180;2023-03-31T06:38:32;2.67;;;1.02;;
54665;SDS011;40566;50.006;36.180;2023-03-31T06:43:33;3.00;;;1.23;;
54665;SDS011;40566;50.006;36.180;2023-03-31T06:48:34;6.10;;;1.38;;
54665;SDS011;40566;50.006;36.180;2023-03-31T06:53:36;2.85;;;1.02;;
54665;SDS011;40566;50.006;36.180;2023-03-31T06:58:36;3.33;;;1.38;;
54665;SDS011;40566;50.006;36.180;2023-03-31T07:03:37;2.85;;;1.33;;
54665;SDS011;40566;50.006;36.180;2023-03-31T07:08:37;3.53;;;1.10;;
54665;SDS011;40566;50.006;36.180;2023-03-31T07:13:38;2.60;;;1.08;;
54665;SDS011;40566;50.006;36.180;2023-03-31T07:18:39;2.38;;;1.02;;
54665;SDS011;40566;50.006;36.180;2023-03-31T07:23:41;1.88;;;0.80;;
54665;SDS011;40566;50.006;36.180;2023-03-31T07:28:41;1.80;;;0.90;;
54665;SDS011;40566;50.006;36.180;2023-03-31T07:33:42;2.40;;;0.85;;
54665;SDS011;40566;50.006;36.180;2023-03-31T07:38:44;4.60;;;1.55;;
54665;SDS011;40566;50.006;36.180;2023-03-31T07:43:48;2.58;;;1.23;;
54665;SDS011;40566;50.006;36.180;2023-03-31T07:48:49;2.70;;;1.25;;
54665;SDS011;40566;50.006;36.180;2023-03-31T07:53:51;1.98;;;0.90;;
54665;SDS011;40566;50.006;36.180;2023-03-31T07:58:52;3.70;;;1.02;;
54665;SDS011;40566;50.006;36.180;2023-03-31T08:03:53;3.40;;;1.10;;
54665;SDS011;40566;50.006;36.180;2023-03-31T08:08:54;3.53;;;1.20;;
54665;SDS011;40566;50.006;36.180;2023-03-31T08:13:55;3.72;;;1.00;;
54665;SDS011;40566;50.006;36.180;2023-03-31T08:18:56;2.15;;;0.90;;
54665;SDS011;40566;50.006;36.180;2023-03-31T08:23:57;2.58;;;1.15;;
54665;SDS011;40566;50.006;36.180;2023-03-31T08:28:58;2.65;;;1.10;;
54665;SDS011;40566;50.006;36.180;2023-03-31T08:33:58;2.83;;;1.10;;
54665;SDS011;40566;50.006;36.180;2023-03-31T08:38:59;2.60;;;1.35;;
54665;SDS011;40566;50.006;36.180;2023-03-31T08:44:01;3.42;;;1.40;;
54665;SDS011;40566;50.006;36.180;2023-03-31T08:49:08;1.63;;;0.85;;
54665;SDS011;40566;50.006;36.180;2023-03-31T08:54:18;5.85;;;1.40;;
54665;SDS011;40566;50.006;36.180;2023-03-31T08:59:34;5.63;;;1.40;;
54665;SDS011;40566;50.006;36.180;2023-03-31T09:15:13;2.97;;;1.20;;
54665;SDS011;40566;50.006;36.180;2023-03-31T09:20:29;2.38;;;1.25;;
54665;SDS011;40566;50.006;36.180;2023-03-31T09:25:35;2.13;;;1.10;;
54665;SDS011;40566;50.006;36.180;2023-03-31T09:30:38;2.00;;;0.98;;
54665;SDS011;40566;50.006;36.180;2023-03-31T09:35:41;2.70;;;1.05;;
54665;SDS011;40566;50.006;36.180;2023-03-31T09:40:42;2.67;;;1.02;;
54665;SDS011;40566;50.006;36.180;2023-03-31T09:45:43;1.85;;;0.90;;
54665;SDS011;40566;50.006;36.180;2023-03-31T09:50:45;3.45;;;1.02;;
54665;SDS011;40566;50.006;36.180;2023-03-31T09:55:55;7.35;;;2.78;;
54665;SDS011;40566;50.006;36.180;2023-03-31T10:01:07;2.97;;;1.30;;
54665;SDS011;40566;50.006;36.180;2023-03-31T10:06:11;2.22;;;1.30;;
54665;SDS011;40566;50.006;36.180;2023-03-31T10:11:15;2.83;;;1.10;;
54665;SDS011;40566;50.006;36.180;2023-03-31T10:16:25;3.65;;;1.20;;
54665;SDS011;40566;50.006;36.180;2023-03-31T10:21:35;4.22;;;1.42;;
54665;SDS011;40566;50.006;36.180;2023-03-31T10:26:37;3.35;;;1.65;;
54665;SDS011;40566;50.006;36.180;2023-03-31T10:31:39;3.45;;;1.30;;
54665;SDS011;40566;50.006;36.180;2023-03-31T10:36:43;7.60;;;2.97;;
54665;SDS011;40566;50.006;36.180;2023-03-31T10:41:50;4.22;;;1.60;;
54665;SDS011;40566;50.006;36.180;2023-03-31T10:46:52;3.38;;;1.40;;
54665;SDS011;40566;50.006;36.180;2023-03-31T10:51:53;2.97;;;1.23;;
54665;SDS011;40566;50.006;36.180;2023-03-31T10:56:59;2.75;;;1.13;;
54665;SDS011;40566;50.006;36.180;2023-03-31T11:07:24;2.28;;;0.98;;
54665;SDS011;40566;50.006;36.180;2023-03-31T11:34:02;2.85;;;1.00;;
54665;SDS011;40566;50.006;36.180;2023-03-31T11:39:36;1.92;;;0.90;;
54665;SDS011;40566;50.006;36.180;2023-03-31T11:44:57;2.75;;;1.08;;
54665;SDS011;40566;50.006;36.180;2023-03-31T11:50:05;2.28;;;1.15;;
54665;SDS011;40566;50.006;36.180;2023-03-31T11:55:15;4.00;;;1.65;;
54665;SDS011;40566;50.006;36.180;2023-03-31T12:00:22;2.85;;;1.00;;
54665;SDS011;40566;50.006;36.180;2023-03-31T12:05:27;1.77;;;0.80;;
54665;SDS011;40566;50.006;36.180;2023-03-31T12:10:43;1.98;;;0.80;;
54665;SDS011;40566;50.006;36.180;2023-03-31T12:16:13;2.55;;;0.95;;
54665;SDS011;40566;50.006;36.180;2023-03-31T12:21:29;1.77;;;0.73;;
54665;SDS011;40566;50.006;36.180;2023-03-31T12:31:41;4.00;;;1.10;;
54665;SDS011;40566;50.006;36.180;2023-03-31T12:36:51;4.75;;;1.58;;
54665;SDS011;40566;50.006;36.180;2023-03-31T12:42:08;9.73;;;4.03;;
54665;SDS011;40566;50.006;36.180;2023-03-31T13:13:56;3.20;;;1.20;;
54665;SDS011;40566;50.006;36.180;2023-03-31T13:18:58;7.25;;;2.63;;
54665;SDS011;40566;50.006;36.180;2023-03-31T13:23:59;6.78;;;2.20;;
54665;SDS011;40566;50.006;36.180;2023-03-31T13:34:15;3.00;;;1.20;;
54665;SDS011;40566;50.006;36.180;2023-03-31T13:50:11;6.05;;;1.90;;
54665;SDS011;40566;50.006;36.180;2023-03-31T14:01:02;4.70;;;1.50;;
54665;SDS011;40566;50.006;36.180;2023-03-31T14:06:32;3.88;;;1.50;;
54665;SDS011;40566;50.006;36.180;2023-03-31T14:11:37;6.93;;;1.92;;
54665;SDS011;40566;50.006;36.180;2023-03-31T14:16:38;4.93;;;2.00;;
54665;SDS011;40566;50.006;36.180;2023-03-31T14:21:45;3.65;;;1.20;;
54665;SDS011;40566;50.006;36.180;2023-03-31T14:37:56;23.83;;;12.02;;
54665;SDS011;40566;50.006;36.180;2023-03-31T14:42:57;31.40;;;15.30;;
54665;SDS011;40566;50.006;36.180;2023-03-31T14:48:00;20.88;;;8.07;;
54665;SDS011;40566;50.006;36.180;2023-03-31T14:53:13;11.63;;;3.55;;
54665;SDS011;40566;50.006;36.180;2023-03-31T14:58:23;21.95;;;12.18;;
54665;SDS011;40566;50.006;36.180;2023-03-31T15:03:38;7.88;;;2.75;;
54665;SDS011;40566;50.006;36.180;2023-03-31T15:08:43;5.47;;;2.00;;
54665;SDS011;40566;50.006;36.180;2023-03-31T15:13:48;7.00;;;2.90;;
54665;SDS011;40566;50.006;36.180;2023-03-31T15:18:55;7.35;;;2.72;;
54665;SDS011;40566;50.006;36.180;2023-03-31T15:23:57;19.30;;;8.75;;
54665;SDS011;40566;50.006;36.180;2023-03-31T15:29:02;13.52;;;3.42;;
54665;SDS011;40566;50.006;36.180;2023-03-31T15:34:13;7.15;;;3.22;;
54665;SDS011;40566;50.006;36.180;2023-03-31T15:39:18;9.95;;;3.15;;
54665;SDS011;40566;50.006;36.180;2023-03-31T15:49:29;6.13;;;2.65;;
54665;SDS011;40566;50.006;36.180;2023-03-31T15:59:46;10.05;;;3.85;;
54665;SDS011;40566;50.006;36.180;2023-03-31T16:04:49;12.48;;;4.45;;
54665;SDS011;40566;50.006;36.180;2023-03-31T16:10:06;15.45;;;4.80;;
54665;SDS011;40566;50.006;36.180;2023-03-31T16:15:15;11.95;;;4.43;;
54665;SDS011;40566;50.006;36.180;2023-03-31T16:20:22;21.55;;;8.77;;
54665;SDS011;40566;50.006;36.180;2023-03-31T16:25:28;9.00;;;3.00;;
54665;SDS011;40566;50.006;36.180;2023-03-31T16:30:38;10.43;;;4.40;;
54665;SDS011;40566;50.006;36.180;2023-03-31T16:35:41;10.45;;;3.38;;
54665;SDS011;40566;50.006;36.180;2023-03-31T16:40:48;14.03;;;5.43;;
54665;SDS011;40566;50.006;36.180;2023-03-31T16:45:56;9.98;;;3.55;;
54665;SDS011;40566;50.006;36.180;2023-03-31T16:50:58;17.92;;;5.32;;
54665;SDS011;40566;50.006;36.180;2023-03-31T16:55:59;16.02;;;5.40;;
54665;SDS011;40566;50.006;36.180;2023-03-31T17:01:00;16.35;;;5.95;;
54665;SDS011;40566;50.006;36.180;2023-03-31T17:06:05;13.60;;;5.35;;
54665;SDS011;40566;50.006;36.180;2023-03-31T17:11:09;9.73;;;3.35;;
54665;SDS011;40566;50.006;36.180;2023-03-31T17:16:11;8.93;;;2.88;;
54665;SDS011;40566;50.006;36.180;2023-03-31T17:21:12;11.85;;;3.45;;
54665;SDS011;40566;50.006;36.180;2023-03-31T17:26:15;11.80;;;3.45;;
54665;SDS011;40566;50.006;36.180;2023-03-31T17:31:17;15.30;;;3.72;;
54665;SDS011;40566;50.006;36.180;2023-03-31T17:36:20;9.65;;;3.70;;
54665;SDS011;40566;50.006;36.180;2023-03-31T17:41:21;15.85;;;3.60;;
54665;SDS011;40566;50.006;36.180;2023-03-31T17:46:22;15.82;;;4.53;;
54665;SDS011;40566;50.006;36.180;2023-03-31T17:51:23;10.27;;;4.03;;
54665;SDS011;40566;50.006;36.180;2023-03-31T17:56:24;13.93;;;4.63;;
54665;SDS011;40566;50.006;36.180;2023-03-31T18:01:24;12.98;;;4.55;;
54665;SDS011;40566;50.006;36.180;2023-03-31T18:06:26;20.40;;;7.43;;
54665;SDS011;40566;50.006;36.180;2023-03-31T18:11:26;18.88;;;7.05;;
54665;SDS011;40566;50.006;36.180;2023-03-31T18:16:27;22.75;;;8.43;;
54665;SDS011;40566;50.006;36.180;2023-03-31T18:21:29;28.77;;;8.60;;
54665;SDS011;40566;50.006;36.180;2023-03-31T18:26:30;32.50;;;10.85;;
54665;SDS011;40566;50.006;36.180;2023-03-31T18:31:31;26.35;;;9.70;;
54665;SDS011;40566;50.006;36.180;2023-03-31T18:36:31;27.88;;;9.15;;
54665;SDS011;40566;50.006;36.180;2023-03-31T18:41:33;31.77;;;10.98;;
54665;SDS011;40566;50.006;36.180;2023-03-31T18:46:33;29.67;;;10.15;;
54665;SDS011;40566;50.006;36.180;2023-03-31T18:51:34;21.67;;;7.30;;
54665;SDS011;40566;50.006;36.180;2023-03-31T18:56:36;17.30;;;6.10;;
54665;SDS011;40566;50.006;36.180;2023-03-31T19:01:36;16.42;;;5.63;;
54665;SDS011;40566;50.006;36.180;2023-03-31T19:06:39;14.45;;;5.53;;
54665;SDS011;40566;50.006;36.180;2023-03-31T19:11:40;22.55;;;6.75;;
54665;SDS011;40566;50.006;36.180;2023-03-31T19:16:41;18.63;;;6.82;;
54665;SDS011;40566;50.006;36.180;2023-03-31T19:21:44;20.67;;;6.88;;
54665;SDS011;40566;50.006;36.180;2023-03-31T19:26:44;26.13;;;7.25;;
54665;SDS011;40566;50.006;36.180;2023-03-31T19:31:45;18.13;;;6.00;;
54665;SDS011;40566;50.006;36.180;2023-03-31T19:36:46;15.95;;;5.88;;
54665;SDS011;40566;50.006;36.180;2023-03-31T19:41:47;17.48;;;6.28;;
54665;SDS011;40566;50.006;36.180;2023-03-31T19:46:47;16.83;;;6.05;;
54665;SDS011;40566;50.006;36.180;2023-03-31T19:51:48;14.32;;;4.75;;
54665;SDS011;40566;50.006;36.180;2023-03-31T19:56:49;13.32;;;4.65;;
54665;SDS011;40566;50.006;36.180;2023-03-31T20:01:49;13.00;;;5.30;;
54665;SDS011;40566;50.006;36.180;2023-03-31T20:06:50;16.25;;;6.50;;
54665;SDS011;40566;50.006;36.180;2023-03-31T20:11:52;14.77;;;4.95;;
54665;SDS011;40566;50.006;36.180;2023-03-31T20:16:53;11.00;;;5.20;;
54665;SDS011;40566;50.006;36.180;2023-03-31T20:21:54;10.55;;;3.72;;
54665;SDS011;40566;50.006;36.180;2023-03-31T20:26:56;11.35;;;4.03;;
54665;SDS011;40566;50.006;36.180;2023-03-31T20:31:58;14.82;;;6.00;;
54665;SDS011;40566;50.006;36.180;2023-03-31T20:36:58;12.70;;;3.80;;
54665;SDS011;40566;50.006;36.180;2023-03-31T20:41:59;10.85;;;4.32;;
54665;SDS011;40566;50.006;36.180;2023-03-31T20:47:00;12.18;;;3.60;;
54665;SDS011;40566;50.006;36.180;2023-03-31T20:52:01;13.25;;;4.53;;
54665;SDS011;40566;50.006;36.180;2023-03-31T20:57:01;12.05;;;4.07;;
54665;SDS011;40566;50.006;36.180;2023-03-31T21:02:04;17.42;;;4.20;;
54665;SDS011;40566;50.006;36.180;2023-03-31T21:07:05;15.23;;;3.28;;
54665;SDS011;40566;50.006;36.180;2023-03-31T21:12:06;9.80;;;3.13;;
54665;SDS011;40566;50.006;36.180;2023-03-31T21:17:06;8.25;;;3.25;;
54665;SDS011;40566;50.006;36.180;2023-03-31T21:22:07;7.75;;;2.85;;
54665;SDS011;40566;50.006;36.180;2023-03-31T21:27:07;10.68;;;3.10;;
54665;SDS011;40566;50.006;36.180;2023-03-31T21:32:08;9.65;;;3.63;;
54665;SDS011;40566;50.006;36.180;2023-03-31T21:37:09;12.05;;;3.53;;
54665;SDS011;40566;50.006;36.180;2023-03-31T21:42:09;12.35;;;3.38;;
54665;SDS011;40566;50.006;36.180;2023-03-31T21:47:10;11.60;;;4.05;;
54665;SDS011;40566;50.006;36.180;2023-03-31T21:52:11;10.88;;;4.40;;
54665;SDS011;40566;50.006;36.180;2023-03-31T21:57:11;8.73;;;3.35;;
54665;SDS011;40566;50.006;36.180;2023-03-31T22:02:12;8.13;;;2.88;;
54665;SDS011;40566;50.006;36.180;2023-03-31T22:07:12;9.25;;;3.63;;
54665;SDS011;40566;50.006;36.180;2023-03-31T22:12:13;10.25;;;2.85;;
54665;SDS011;40566;50.006;36.180;2023-03-31T22:17:14;12.80;;;2.92;;
54665;SDS011;40566;50.006;36.180;2023-03-31T22:22:15;14.93;;;3.03;;
54665;SDS011;40566;50.006;36.180;2023-03-31T22:27:16;12.95;;;3.42;;
54665;SDS011;40566;50.006;36.180;2023-03-31T22:32:17;7.80;;;2.97;;
54665;SDS011;40566;50.006;36.180;2023-03-31T22:37:19;10.10;;;3.10;;
54665;SDS011;40566;50.006;36.180;2023-03-31T22:42:20;11.43;;;3.10;;
54665;SDS011;40566;50.006;36.180;2023-03-31T22:47:20;13.68;;;3.45;;
54665;SDS011;40566;50.006;36.180;2023-03-31T22:52:21;12.32;;;2.53;;
54665;SDS011;40566;50.006;36.180;2023-03-31T22:57:22;10.63;;;3.17;;
54665;SDS011;40566;50.006;36.180;2023-03-31T23:02:22;8.07;;;3.00;;
54665;SDS011;40566;50.006;36.180;2023-03-31T23:07:23;15.02;;;3.75;;
54665;SDS011;40566;50.006;36.180;2023-03-31T23:12:24;11.95;;;3.72;;
54665;SDS011;40566;50.006;36.180;2023-03-31T23:17:25;12.65;;;4.68;;
54665;SDS011;40566;50.006;36.180;2023-03-31T23:22:26;11.82;;;4.00;;
54665;SDS011;40566;50.006;36.180;2023-03-31T23:27:27;9.30;;;3.15;;
54665;SDS011;40566;50.006;36.180;2023-03-31T23:32:27;17.08;;;4.97;;
54665;SDS011;40566;50.006;36.180;2023-03-31T23:37:28;9.82;;;3.03;;
54665;SDS011;40566;50.006;36.180;2023-03-31T23:42:28;14.52;;;5.38;;
54665;SDS011;40566;50.006;36.180;2023-03-31T23:47:29;8.85;;;3.17;;
54665;SDS011;40566;50.006;36.180;2023-03-31T23:52:31;14.60;;;3.10;;
54665;SDS011;40566;50.006;36.180;2023-03-31T23:57:34;12.65;;;3.75;;
